Time;durP1;ratioP1;P1;durP2;ratioP2;P2;SDS_P1;SDS_P2;PMS_P1;PMS_P2;Temp;Humidity;BMP_temperature;BMP_pressure;BME280_temperature;BME280_humidity;BME280_pressure;Samples;Min_cycle;Max_cycle;Signal;HPM_P1;HPM_P2
2021/01/14 00:01:24;;;;;;;8.38;6.15;;;;;;;0.40;52.10;95378.70;1745464;81;21071;-55
2021/01/14 00:03:51;;;;;;;11.55;6.83;;;;;;;0.53;51.96;95372.54;1744898;82;21582;-56
2021/01/14 00:06:19;;;;;;;9.58;6.50;;;;;;;0.53;51.96;95372.54;1747514;82;21653;-55
2021/01/14 00:08:47;;;;;;;8.73;6.53;;;;;;;0.49;52.03;95373.58;1748100;82;21078;-55
2021/01/14 00:11:15;;;;;;;9.48;6.72;;;;;;;0.47;52.19;95369.83;1765816;81;21153;-55
2021/01/14 00:13:43;;;;;;;9.68;6.65;;;;;;;0.47;52.39;95372.84;1748192;82;21077;-55
2021/01/14 00:16:10;;;;;;;10.82;6.42;;;;;;;0.43;52.52;95376.43;1752813;81;21688;-55
2021/01/14 00:18:38;;;;;;;8.48;6.15;;;;;;;0.29;52.80;95377.13;1720436;83;21393;-55
2021/01/14 00:21:05;;;;;;;10.08;6.58;;;;;;;0.12;53.70;95377.50;1740333;82;21108;-55
2021/01/14 00:23:33;;;;;;;10.38;6.87;;;;;;;-0.02;54.24;95374.79;1750345;82;21045;-54
2021/01/14 00:26:01;;;;;;;12.20;6.67;;;;;;;-0.22;54.71;95384.20;1750326;82;21616;-54
2021/01/14 00:28:28;;;;;;;11.57;6.42;;;;;;;-0.38;55.14;95375.20;1747269;80;21569;-55
2021/01/14 00:30:55;;;;;;;8.78;6.33;;;;;;;-0.47;55.50;95378.17;1710677;83;21289;-56
2021/01/14 00:33:23;;;;;;;11.73;6.65;;;;;;;-0.52;55.77;95376.73;1704038;84;21178;-56
2021/01/14 00:35:51;;;;;;;11.80;7.42;;;;;;;-0.59;55.92;95373.19;1704652;83;21581;-55
2021/01/14 00:38:18;;;;;;;12.30;7.30;;;;;;;-0.62;56.21;95370.78;1705364;83;21154;-55
2021/01/14 00:40:46;;;;;;;12.20;7.72;;;;;;;-0.68;56.46;95375.33;1750298;82;21712;-55
2021/01/14 00:43:14;;;;;;;12.90;8.10;;;;;;;-0.76;56.77;95371.42;1753771;80;21353;-55
2021/01/14 00:45:41;;;;;;;11.25;7.72;;;;;;;-0.86;57.00;95369.34;1769938;79;21158;-55
2021/01/14 00:48:09;;;;;;;12.20;7.92;;;;;;;-0.93;57.19;95364.98;1751385;82;21091;-55
2021/01/14 00:50:37;;;;;;;9.98;6.47;;;;;;;-1.03;57.71;95356.92;1751533;82;21058;-55
2021/01/14 00:53:04;;;;;;;10.45;6.95;;;;;;;-1.17;58.01;95359.25;1749613;82;21559;-54
2021/01/14 00:55:33;;;;;;;9.97;6.67;;;;;;;-1.24;58.25;95356.60;1836728;78;21259;-54
2021/01/14 00:58:01;;;;;;;11.70;7.65;;;;;;;-1.24;58.28;95353.59;1837882;78;21577;-55
2021/01/14 01:00:29;;;;;;;15.75;7.80;;;;;;;-1.25;58.26;95348.58;1837960;78;21195;-55
2021/01/14 01:02:58;;;;;;;11.15;6.87;;;;;;;-1.25;58.26;95351.12;1779410;80;21164;-55
2021/01/14 01:05:25;;;;;;;13.03;7.35;;;;;;;-1.24;58.32;95347.23;1751554;80;21057;-55
2021/01/14 01:07:59;;;;;;;14.50;8.55;;;;;;;-1.28;58.24;95347.44;1751446;82;22366;-55
2021/01/14 01:10:26;;;;;;;12.58;7.90;;;;;;;-1.33;58.33;95343.39;1719933;83;21555;-55
2021/01/14 01:12:56;;;;;;;16.45;9.00;;;;;;;-1.28;58.25;95346.16;1806714;78;21055;-55
2021/01/14 01:15:26;;;;;;;15.30;8.80;;;;;;;-1.23;58.05;95346.36;1781832;80;21458;-54
2021/01/14 01:17:53;;;;;;;15.03;9.03;;;;;;;-1.14;57.99;95349.75;1838203;78;21454;-54
2021/01/14 01:20:21;;;;;;;13.20;8.40;;;;;;;-1.07;57.77;95352.03;1834185;78;21199;-54
2021/01/14 01:22:48;;;;;;;15.95;9.23;;;;;;;-1.01;57.72;95342.85;1818365;78;21903;-54
2021/01/14 01:25:16;;;;;;;14.93;9.48;;;;;;;-0.93;57.61;95347.97;1814370;79;21148;-54
2021/01/14 01:27:44;;;;;;;15.50;10.13;;;;;;;-0.81;57.46;95345.77;1813262;78;21033;-54
2021/01/14 01:30:13;;;;;;;16.90;9.83;;;;;;;-0.69;57.13;95346.50;1828931;78;21623;-54
2021/01/14 01:32:42;;;;;;;13.78;8.98;;;;;;;-0.62;56.84;95333.02;1831563;78;22329;-54
2021/01/14 01:35:10;;;;;;;11.57;7.80;;;;;;;-0.56;56.66;95327.20;1759221;80;21116;-55
2021/01/14 01:37:39;;;;;;;12.98;8.83;;;;;;;-0.49;56.40;95332.02;1820777;78;21784;-56
2021/01/14 01:40:09;;;;;;;12.60;8.08;;;;;;;-0.48;56.26;95329.36;1830069;78;21210;-55
2021/01/14 01:42:36;;;;;;;10.00;7.42;;;;;;;-0.47;56.11;95331.48;1793239;78;21556;-55
2021/01/14 01:45:06;;;;;;;10.08;6.05;;;;;;;-0.49;55.93;95329.00;1821067;77;23560;-55
2021/01/14 01:47:34;;;;;;;10.08;7.05;;;;;;;-0.51;55.73;95332.51;1806388;78;21079;-55
2021/01/14 01:50:05;;;;;;;10.85;6.92;;;;;;;-0.58;55.76;95328.15;1821850;78;21057;-55
2021/01/14 01:52:33;;;;;;;9.23;6.75;;;;;;;-0.59;56.14;95329.06;1821091;78;21165;-54
2021/01/14 01:55:03;;;;;;;10.75;6.67;;;;;;;-0.59;55.87;95324.78;1820582;78;21104;-54
2021/01/14 01:57:31;;;;;;;;;;;;;;;-0.57;55.77;95328.08;1819865;78;22169;-55
2021/01/14 01:59:59;;;;;;;8.55;5.50;;;;;;;-0.54;55.51;95325.00;1819477;77;20485;-57
2021/01/14 02:02:29;;;;;;;7.95;5.58;;;;;;;-0.60;55.25;95325.67;1812943;78;21160;-57
2021/01/14 02:04:57;;;;;;;8.65;5.67;;;;;;;-0.63;55.17;95321.98;1814329;78;21041;-56
2021/01/14 02:07:36;;;;;;;10.38;6.40;;;;;;;-0.65;55.08;95317.42;1802560;78;21525;-56
2021/01/14 02:10:14;;;;;;;9.63;6.67;;;;;;;-0.59;55.22;95313.32;1806746;77;21184;-56
2021/01/14 02:13:41;;;;;;;11.33;7.55;;;;;;;-0.46;55.04;95313.58;1802702;78;21506;-56
2021/01/14 02:16:10;;;;;;;12.75;8.35;;;;;;;-0.34;54.74;95312.16;1763202;80;21572;-57
2021/01/14 02:18:38;;;;;;;11.90;8.73;;;;;;;-0.15;54.34;95309.98;1742416;80;21184;-57
2021/01/14 02:21:08;;;;;;;10.53;7.50;;;;;;;-0.03;53.87;95304.30;1744095;80;21086;-57
2021/01/14 02:24:06;;;;;;;12.90;8.78;;;;;;;0.11;53.58;95303.14;1740700;81;21240;-57
2021/01/14 02:26:34;;;;;;;13.10;8.40;;;;;;;0.18;53.24;95299.84;1780779;79;21061;-56
2021/01/14 02:29:02;;;;;;;13.48;7.83;;;;;;;0.22;53.20;95296.70;1762231;80;21149;-56
2021/01/14 02:31:29;;;;;;;13.13;9.00;;;;;;;0.25;53.22;95294.82;1744147;81;21188;-56
2021/01/14 02:33:57;;;;;;;16.45;8.40;;;;;;;0.24;53.04;95298.27;1770093;80;21584;-55
2021/01/14 02:36:27;;;;;;;11.40;7.30;;;;;;;0.24;53.14;95295.71;1772351;80;21373;-56
2021/01/14 02:38:55;;;;;;;11.88;7.55;;;;;;;0.26;52.74;95299.46;1752917;80;38047;-56
2021/01/14 02:41:22;;;;;;;14.87;8.18;;;;;;;0.26;53.02;95296.45;1780451;80;21060;-56
2021/01/14 02:43:50;;;;;;;11.78;7.70;;;;;;;0.28;53.53;95292.12;1747530;80;21586;-56
2021/01/14 02:46:18;;;;;;;15.83;8.33;;;;;;;0.31;53.08;95287.30;1756251;81;21596;-56
2021/01/14 02:48:55;;;;;;;13.40;8.00;;;;;;;0.35;52.67;95282.42;1741930;81;21531;-57
2021/01/14 02:51:27;;;;;;;13.50;8.03;;;;;;;0.44;52.92;95281.12;1751276;81;21078;-56
2021/01/14 02:54:03;;;;;;;15.33;9.97;;;;;;;0.49;52.89;95284.25;1842120;76;23293;-56
2021/01/14 02:56:31;;;;;;;13.18;8.53;;;;;;;0.45;52.58;95279.77;1819278;78;21035;-56
2021/01/14 02:59:01;;;;;;;15.48;9.48;;;;;;;0.44;52.38;95275.55;1791471;78;21367;-55
2021/01/14 03:01:29;;;;;;;15.68;9.63;;;;;;;0.39;52.46;95268.59;1820507;78;20976;-55
2021/01/14 03:03:57;;;;;;;15.55;9.50;;;;;;;0.25;52.96;95273.59;1780974;80;21115;-55
2021/01/14 03:06:25;;;;;;;17.52;10.95;;;;;;;0.25;52.96;95273.59;1757488;80;21211;-55
2021/01/14 03:08:53;;;;;;;19.20;9.25;;;;;;;0.24;53.32;95270.66;1759387;79;21087;-55
2021/01/14 03:11:32;;;;;;;13.95;7.95;;;;;;;0.26;53.11;95271.40;1754923;80;24569;-56
2021/01/14 03:14:00;;;;;;;16.70;10.05;;;;;;;0.28;53.00;95267.03;1749735;80;21013;-55
2021/01/14 03:16:28;;;;;;;19.32;10.25;;;;;;;0.31;53.32;95265.61;1761918;80;21120;-55
2021/01/14 03:18:56;;;;;;;19.32;10.80;;;;;;;0.34;53.71;95257.80;1753374;80;21100;-55
2021/01/14 03:21:24;;;;;;;24.55;12.37;;;;;;;0.42;53.60;95265.88;1753085;80;21131;-55
2021/01/14 03:23:52;;;;;;;24.30;12.45;;;;;;;0.46;53.68;95262.28;1748992;80;22102;-56
2021/01/14 03:26:20;;;;;;;24.10;12.00;;;;;;;0.52;53.46;95257.30;1750130;80;21788;-54
2021/01/14 03:28:49;;;;;;;24.00;12.75;;;;;;;0.59;53.41;95255.25;1739006;81;21158;-54
2021/01/14 03:31:18;;;;;;;30.00;14.35;;;;;;;0.64;53.28;95241.36;1747108;80;21115;-55
2021/01/14 03:33:46;;;;;;;21.15;11.10;;;;;;;0.67;52.88;95246.27;1752127;80;21668;-57
2021/01/14 03:36:18;;;;;;;19.27;10.15;;;;;;;0.68;52.86;95240.27;1752161;80;21193;-55
2021/01/14 03:38:46;;;;;;;20.70;10.95;;;;;;;0.69;52.56;95241.94;1742751;80;21226;-55
2021/01/14 03:41:16;;;;;;;25.75;10.58;;;;;;;0.70;52.41;95242.75;1757327;80;21060;-55
2021/01/14 03:43:44;;;;;;;19.30;9.98;;;;;;;0.73;52.24;95243.41;1756121;80;21081;-56
2021/01/14 03:46:16;;;;;;;13.32;7.92;;;;;;;0.78;52.20;95241.08;1759587;80;21100;-55
2021/01/14 03:48:45;;;;;;;12.60;7.47;;;;;;;0.83;51.99;95233.98;1746207;80;21267;-56
2021/01/14 03:51:23;;;;;;;12.78;6.80;;;;;;;0.83;51.63;95223.31;1748479;80;21618;-55
2021/01/14 03:53:51;;;;;;;13.68;7.40;;;;;;;0.88;51.43;95228.17;1749829;79;21122;-56
2021/01/14 03:56:19;;;;;;;10.43;6.22;;;;;;;0.87;51.37;95228.64;1751328;80;21194;-56
2021/01/14 03:58:47;;;;;;;11.48;7.33;;;;;;;0.87;51.37;95228.64;1745870;80;21139;-55
2021/01/14 04:01:15;;;;;;;10.98;6.70;;;;;;;0.83;51.25;95230.97;1749640;80;21587;-55
2021/01/14 04:03:43;;;;;;;15.10;8.18;;;;;;;0.81;51.27;95230.70;1749756;80;21163;-55
2021/01/14 04:06:11;;;;;;;12.05;7.40;;;;;;;0.81;51.27;95230.70;1744525;80;21158;-58
2021/01/14 04:08:40;;;;;;;14.35;8.68;;;;;;;0.82;51.40;95228.06;1748036;80;21214;-55
2021/01/14 04:11:09;;;;;;;14.13;8.40;;;;;;;0.73;51.53;95230.64;1754232;80;21548;-55
2021/01/14 04:13:38;;;;;;;13.20;8.58;;;;;;;0.65;52.05;95225.58;1744136;80;22523;-56
2021/01/14 04:16:09;;;;;;;14.77;8.63;;;;;;;0.65;52.05;95225.58;1754403;80;21206;-55
2021/01/14 04:18:37;;;;;;;12.40;7.72;;;;;;;0.76;51.54;95222.44;1721378;80;21096;-55
2021/01/14 04:21:05;;;;;;;11.12;7.60;;;;;;;0.76;51.54;95222.44;1749807;80;21131;-56
2021/01/14 04:23:33;;;;;;;13.13;7.53;;;;;;;0.78;52.42;95223.20;1741514;80;21569;-56
2021/01/14 04:26:01;;;;;;;10.05;6.70;;;;;;;0.78;52.42;95223.20;1752648;80;21378;-56
2021/01/14 04:28:29;;;;;;;12.50;7.92;;;;;;;0.75;52.75;95224.17;1748191;80;21077;-56
2021/01/14 04:30:57;;;;;;;11.70;7.70;;;;;;;0.81;53.13;95235.34;1749854;80;21162;-56
2021/01/14 04:33:25;;;;;;;12.57;7.40;;;;;;;0.85;53.51;95226.59;1753669;80;21190;-56
2021/01/14 04:35:56;;;;;;;11.03;8.03;;;;;;;0.88;53.85;95223.88;1720219;82;21563;-56
2021/01/14 04:38:25;;;;;;;10.53;7.67;;;;;;;0.89;54.02;95223.45;1750170;80;21390;-56
2021/01/14 04:40:59;;;;;;;12.45;7.95;;;;;;;0.89;54.16;95221.70;1727411;81;21204;-56
2021/01/14 04:43:29;;;;;;;13.68;7.92;;;;;;;0.90;54.25;95210.59;1744266;80;21154;-55
2021/01/14 04:46:04;;;;;;;10.20;7.12;;;;;;;0.89;54.19;95212.77;1752883;80;21558;-56
2021/01/14 04:48:41;;;;;;;10.48;7.58;;;;;;;0.86;54.36;95216.77;1751187;80;21064;-56
2021/01/14 04:51:13;;;;;;;9.83;7.45;;;;;;;0.67;54.42;95219.47;1749179;80;21204;-57
2021/01/14 04:53:44;;;;;;;16.02;9.68;;;;;;;0.58;54.79;95228.91;1751255;80;21166;-57
2021/01/14 04:56:14;;;;;;;14.10;9.40;;;;;;;0.57;54.92;95218.31;1761274;80;21116;-57
2021/01/14 04:58:47;;;;;;;12.75;8.85;;;;;;;0.57;55.13;95222.61;1740430;80;21667;-57
2021/01/14 05:01:23;;;;;;;12.50;8.58;;;;;;;0.48;55.24;95218.82;1760541;80;21159;-56
2021/01/14 05:03:52;;;;;;;17.17;10.10;;;;;;;0.48;55.24;95218.82;1752397;80;21438;-56
2021/01/14 05:06:24;;;;;;;17.12;10.65;;;;;;;0.38;55.42;95217.20;1758252;81;21650;-54
2021/01/14 05:08:56;;;;;;;16.85;10.13;;;;;;;0.28;55.17;95220.68;1756288;81;21219;-56
2021/01/14 05:11:25;;;;;;;16.20;9.98;;;;;;;0.20;55.56;95216.86;1759201;81;21140;-54
2021/01/14 05:13:52;;;;;;;19.52;11.43;;;;;;;0.16;55.75;95220.87;1730879;81;21066;-54
2021/01/14 05:16:20;;;;;;;13.90;8.30;;;;;;;0.17;55.80;95207.66;1724198;81;21203;-55
2021/01/14 05:18:47;;;;;;;12.45;8.15;;;;;;;0.16;55.43;95221.30;1721825;82;21192;-55
2021/01/14 05:21:16;;;;;;;16.48;9.20;;;;;;;0.13;55.47;95218.47;1722684;82;21115;-56
2021/01/14 05:23:43;;;;;;;15.63;8.68;;;;;;;0.14;55.49;95218.01;1736007;82;21128;-55
2021/01/14 05:26:11;;;;;;;14.23;8.80;;;;;;;0.15;55.27;95219.20;1740923;81;21725;-56
2021/01/14 05:28:38;;;;;;;20.55;8.93;;;;;;;0.16;55.40;95222.57;1738184;82;21289;-56
2021/01/14 05:31:17;;;;;;;14.43;8.45;;;;;;;0.17;55.41;95219.95;1729803;81;21564;-56
2021/01/14 05:33:58;;;;;;;14.43;8.43;;;;;;;0.18;55.47;95220.77;1727432;81;21103;-55
2021/01/14 05:36:26;;;;;;;10.50;7.15;;;;;;;0.19;55.47;95216.05;1727281;81;21580;-54
2021/01/14 05:38:54;;;;;;;9.70;6.47;;;;;;;0.14;55.63;95218.82;1712465;82;21061;-54
2021/01/14 05:41:27;;;;;;;14.13;6.83;;;;;;;0.11;55.75;95215.61;1714803;82;21599;-54
2021/01/14 05:43:59;;;;;;;15.72;6.28;;;;;;;0.05;55.99;95210.39;1728831;82;21179;-55
2021/01/14 05:46:31;;;;;;;8.03;5.90;;;;;;;-0.02;56.30;95213.70;1741388;82;21116;-54
2021/01/14 05:49:00;;;;;;;6.08;4.90;;;;;;;-0.21;56.39;95213.79;1738963;82;21184;-55
2021/01/14 05:51:32;;;;;;;6.97;5.42;;;;;;;-0.54;57.23;95212.89;1738109;82;21127;-55
2021/01/14 05:54:08;;;;;;;7.53;4.60;;;;;;;-0.71;58.03;95212.45;1722982;82;22327;-56
2021/01/14 05:56:41;;;;;;;8.08;5.72;;;;;;;-0.92;58.73;95221.50;1724671;82;21142;-55
2021/01/14 05:59:15;;;;;;;7.50;5.40;;;;;;;-1.05;59.16;95218.70;1725885;82;21572;-55
2021/01/14 06:01:59;;;;;;;7.00;5.05;;;;;;;-1.13;59.77;95227.14;1734808;80;21174;-56
2021/01/14 06:04:31;;;;;;;7.30;5.10;;;;;;;-1.13;59.99;95219.50;1746820;82;21568;-55
2021/01/14 06:07:04;;;;;;;7.15;5.30;;;;;;;-1.01;60.04;95224.47;1723178;82;22827;-55
2021/01/14 06:09:41;;;;;;;7.58;5.28;;;;;;;-0.85;59.86;95222.03;1726121;82;21135;-56
2021/01/14 06:12:12;;;;;;;7.90;5.40;;;;;;;-0.72;59.70;95213.33;1723850;82;21052;-56
2021/01/14 06:14:39;;;;;;;6.80;4.60;;;;;;;-0.61;59.47;95210.67;1723847;82;21492;-55
2021/01/14 06:17:11;;;;;;;6.90;4.87;;;;;;;-0.50;59.28;95211.86;1722921;82;21118;-56
2021/01/14 06:19:39;;;;;;;7.15;4.83;;;;;;;-0.43;59.13;95214.47;1725696;82;21370;-55
2021/01/14 06:22:07;;;;;;;7.53;5.08;;;;;;;-0.40;58.98;95218.96;1724622;82;21560;-55
2021/01/14 06:24:38;;;;;;;9.43;5.55;;;;;;;-0.38;58.96;95214.64;1734190;82;21167;-55
2021/01/14 06:27:10;;;;;;;7.50;5.15;;;;;;;-0.32;58.81;95216.05;1733929;82;21135;-56
2021/01/14 06:29:43;;;;;;;9.55;6.35;;;;;;;-0.26;58.60;95207.28;1746163;80;21603;-54
2021/01/14 06:32:14;;;;;;;10.53;6.28;;;;;;;-0.23;58.49;95216.03;1747278;80;21403;-55
2021/01/14 06:34:51;;;;;;;12.65;7.95;;;;;;;-0.17;58.22;95218.74;1733647;82;21188;-55
2021/01/14 06:37:24;;;;;;;15.43;9.63;;;;;;;-0.15;58.11;95211.83;1750882;82;21092;-55
2021/01/14 06:39:58;;;;;;;19.23;10.85;;;;;;;-0.12;57.95;95216.31;1721670;83;21095;-55
2021/01/14 06:42:35;;;;;;;19.12;10.65;;;;;;;-0.10;57.91;95215.81;1735385;82;21120;-55
2021/01/14 06:45:06;;;;;;;24.52;9.23;;;;;;;-0.07;57.81;95216.09;1743732;80;21092;-55
2021/01/14 06:47:38;;;;;;;16.82;9.00;;;;;;;-0.06;57.58;95212.66;1736938;81;21119;-55
2021/01/14 06:50:19;;;;;;;11.38;7.60;;;;;;;-0.07;57.33;95213.09;1766532;81;21136;-56
2021/01/14 06:53:10;;;;;;;14.40;8.80;;;;;;;0.02;57.17;95213.09;1753778;81;21115;-55
2021/01/14 06:55:38;;;;;;;15.18;9.33;;;;;;;0.02;57.17;95213.09;1738000;81;21643;-55
2021/01/14 06:58:11;;;;;;;17.35;9.95;;;;;;;0.05;57.34;95219.31;1765480;81;22338;-54
2021/01/14 07:00:46;;;;;;;18.15;10.45;;;;;;;0.09;57.46;95221.25;1755078;81;21159;-55
2021/01/14 07:03:22;;;;;;;22.02;11.95;;;;;;;0.14;57.53;95229.03;1729739;82;21101;-54
2021/01/14 07:05:59;;;;;;;24.02;12.10;;;;;;;0.21;57.48;95232.09;1743315;81;21480;-55
2021/01/14 07:08:57;;;;;;;26.07;13.00;;;;;;;0.30;57.31;95228.26;1743143;81;21109;-55
2021/01/14 07:11:29;;;;;;;31.02;13.75;;;;;;;0.34;57.16;95232.28;1751059;81;21394;-55
2021/01/14 07:13:56;;;;;;;25.32;13.53;;;;;;;0.34;57.05;95231.82;1738862;81;21567;-55
2021/01/14 07:16:25;;;;;;;23.00;12.78;;;;;;;0.30;57.23;95230.34;1731594;82;21496;-55
2021/01/14 07:18:52;;;;;;;;;;;;;;;0.32;57.18;95229.81;1741822;82;21523;-55
2021/01/14 07:21:34;;;;;;;147.85;76.17;;;;;;;0.37;57.07;95225.75;1744527;81;20262;-55
2021/01/14 07:24:21;;;;;;;40.25;18.55;;;;;;;0.40;57.29;95231.97;1751636;80;22323;-54
2021/01/14 07:26:53;;;;;;;18.10;11.30;;;;;;;0.46;56.97;95233.37;1767709;79;21206;-55
2021/01/14 07:29:20;;;;;;;20.30;11.18;;;;;;;0.47;56.93;95236.30;1767413;79;21047;-55
2021/01/14 07:32:00;;;;;;;28.27;13.75;;;;;;;0.54;56.94;95240.17;1762907;81;21111;-56
2021/01/14 07:34:38;;;;;;;15.68;9.18;;;;;;;0.64;56.94;95234.98;1738188;80;21512;-55
2021/01/14 07:37:11;;;;;;;17.40;10.43;;;;;;;0.72;56.51;95231.99;1722641;83;22185;-55
2021/01/14 07:39:56;;;;;;;14.28;9.13;;;;;;;0.78;56.14;95238.05;1727955;83;21507;-55
2021/01/14 07:42:32;;;;;;;13.95;8.70;;;;;;;0.85;56.10;95238.09;1741421;81;21072;-56
2021/01/14 07:45:04;;;;;;;16.32;8.68;;;;;;;0.96;55.99;95240.54;1754357;81;21080;-55
2021/01/14 07:47:36;;;;;;;13.98;9.10;;;;;;;1.09;55.66;95241.52;1752299;81;21069;-54
2021/01/14 07:50:24;;;;;;;15.95;8.70;;;;;;;1.20;55.48;95243.03;1728280;83;21628;-54
2021/01/14 07:52:54;;;;;;;12.95;8.30;;;;;;;1.42;54.65;95238.01;1748676;80;21060;-57
2021/01/14 07:55:32;;;;;;;11.90;7.85;;;;;;;1.54;53.89;95237.77;1736342;81;21508;-56
2021/01/14 07:58:19;;;;;;;12.67;8.60;;;;;;;1.54;53.89;95237.77;1735884;82;21718;-56
2021/01/14 08:01:09;;;;;;;14.45;9.43;;;;;;;1.63;53.46;95243.19;1709073;83;21265;-55
2021/01/14 08:03:40;;;;;;;13.08;8.68;;;;;;;1.75;53.38;95244.68;1711436;82;21514;-53
2021/01/14 08:06:29;;;;;;;12.78;8.80;;;;;;;1.91;53.42;95247.16;1731314;82;21131;-54
2021/01/14 08:09:08;;;;;;;;;;;;;;;2.03;52.97;95248.56;1730528;82;21544;-54
2021/01/14 08:11:47;;;;;;;;;;;;;;;2.19;53.24;95244.66;1735810;82;20767;-61
2021/01/14 08:14:22;;;;;;;23.10;11.00;;;;;;;2.34;53.05;95248.52;1739274;82;20280;-53
2021/01/14 08:16:50;;;;;;;19.52;11.68;;;;;;;2.38;52.91;95245.69;1722975;82;21213;-54
2021/01/14 08:19:33;;;;;;;18.60;12.25;;;;;;;2.42;52.84;95255.72;1741355;80;21183;-54
2021/01/14 08:22:10;;;;;;;20.68;11.95;;;;;;;2.43;52.85;95252.25;1753400;81;21164;-54
2021/01/14 08:24:53;;;;;;;18.62;11.48;;;;;;;2.47;52.67;95250.70;1728533;81;21152;-54
2021/01/14 08:27:33;;;;;;;19.27;12.35;;;;;;;2.47;52.61;95252.45;1726958;83;21096;-54
2021/01/14 08:30:14;;;;;;;16.73;11.20;;;;;;;2.48;52.51;95252.80;1727032;81;21501;-54
2021/01/14 08:33:04;;;;;;;16.35;11.00;;;;;;;2.56;52.40;95256.53;1727711;81;21651;-54
2021/01/14 08:35:37;;;;;;;14.58;10.58;;;;;;;2.67;52.18;95265.33;1726997;83;21065;-55
2021/01/14 08:38:15;;;;;;;14.20;9.73;;;;;;;2.73;52.12;95266.22;1741983;81;21191;-54
2021/01/14 08:40:43;;;;;;;13.72;9.43;;;;;;;2.75;51.95;95265.22;1757002;81;21048;-54
2021/01/14 08:43:18;;;;;;;12.25;8.40;;;;;;;2.73;51.94;95264.50;1744338;80;21515;-54
2021/01/14 08:45:55;;;;;;;15.13;8.98;;;;;;;2.67;51.94;95261.02;1735374;81;21152;-56
2021/01/14 08:48:28;;;;;;;13.80;8.85;;;;;;;2.64;51.97;95264.23;1744393;81;26311;-54
2021/01/14 08:51:02;;;;;;;12.43;8.95;;;;;;;2.67;52.00;95265.33;1757012;81;21123;-54
2021/01/14 08:53:39;;;;;;;10.93;7.80;;;;;;;2.67;52.00;95261.48;1757043;80;21096;-55
2021/01/14 08:56:11;;;;;;;9.15;6.50;;;;;;;2.62;51.98;95265.60;1754916;81;22077;-54
2021/01/14 08:58:46;;;;;;;8.63;6.40;;;;;;;2.58;51.89;95259.84;1728276;81;21127;-54
2021/01/14 09:01:25;;;;;;;10.08;7.05;;;;;;;2.51;51.94;95260.30;1728463;81;21595;-54
2021/01/14 09:03:54;;;;;;;15.93;6.40;;;;;;;2.47;52.09;95261.41;1728618;83;21088;-55
2021/01/14 09:06:38;;;;;;;11.18;6.10;;;;;;;2.41;52.36;95257.93;1731705;81;21178;-54
2021/01/14 09:09:10;;;;;;;8.88;5.83;;;;;;;2.31;52.56;95267.42;1762836;80;22126;-55
2021/01/14 09:11:38;;;;;;;7.05;5.08;;;;;;;2.20;52.59;95268.50;1757783;81;21184;-55
2021/01/14 09:14:13;;;;;;;9.30;5.33;;;;;;;2.04;53.00;95266.03;1731726;80;21152;-55
2021/01/14 09:16:44;;;;;;;7.15;5.70;;;;;;;1.56;53.97;95266.62;1723012;83;21081;-55
2021/01/14 09:19:23;;;;;;;7.30;5.50;;;;;;;1.30;54.88;95271.47;1723057;83;21073;-55
2021/01/14 09:21:51;;;;;;;9.50;5.42;;;;;;;1.29;55.19;95265.97;1723016;83;21196;-55
2021/01/14 09:24:19;;;;;;;9.95;5.95;;;;;;;1.40;55.52;95265.39;1741319;82;21159;-55
2021/01/14 09:26:48;;;;;;;9.08;5.42;;;;;;;1.62;55.31;95258.15;1750526;82;21544;-55
2021/01/14 09:29:18;;;;;;;8.73;5.75;;;;;;;1.82;54.95;95258.29;1750450;82;21579;-55
2021/01/14 09:31:46;;;;;;;7.87;5.92;;;;;;;1.95;54.81;95254.58;1746911;80;21122;-56
2021/01/14 09:34:14;;;;;;;8.50;5.65;;;;;;;2.08;54.28;95248.77;1746666;80;21224;-55
2021/01/14 09:36:42;;;;;;;8.18;5.25;;;;;;;2.17;54.09;95252.05;1744959;82;21188;-55
2021/01/14 09:39:15;;;;;;;5.80;4.95;;;;;;;2.30;54.13;95248.31;1745606;81;21074;-54
2021/01/14 09:41:42;;;;;;;5.85;4.67;;;;;;;2.38;54.01;95248.25;1745977;82;21086;-55
2021/01/14 09:44:13;;;;;;;5.58;4.67;;;;;;;2.48;53.99;95247.67;1748948;81;21052;-55
2021/01/14 09:46:45;;;;;;;6.50;4.67;;;;;;;2.62;53.82;95248.14;1750613;82;21452;-55
2021/01/14 09:49:19;;;;;;;6.45;4.85;;;;;;;2.80;53.53;95252.61;1750517;81;21068;-54
2021/01/14 09:51:46;;;;;;;6.12;4.58;;;;;;;3.02;53.02;95250.81;1750534;82;21559;-54
2021/01/14 09:54:14;;;;;;;8.70;4.77;;;;;;;3.33;52.34;95248.91;1731870;82;21068;-54
2021/01/14 09:56:47;;;;;;;8.73;4.70;;;;;;;3.60;51.72;95247.15;1723010;83;22189;-54
2021/01/14 09:59:35;;;;;;;5.40;4.53;;;;;;;3.92;51.12;95242.12;1737150;80;21528;-53
2021/01/14 10:02:25;;;;;;;14.68;5.25;;;;;;;4.28;50.08;95242.72;1732884;82;21147;-54
2021/01/14 10:05:09;;;;;;;7.60;4.95;;;;;;;4.31;49.22;95236.09;1723133;82;21135;-53
2021/01/14 10:07:41;;;;;;;6.53;4.62;;;;;;;4.34;49.06;95244.87;1738928;81;21573;-54
2021/01/14 10:10:10;;;;;;;6.22;4.90;;;;;;;4.53;48.51;95241.87;1757171;81;21101;-54
2021/01/14 10:12:40;;;;;;;11.68;5.25;;;;;;;4.47;48.47;95249.98;1740633;81;22233;-54
2021/01/14 10:15:11;;;;;;;6.78;5.10;;;;;;;4.50;48.60;95243.36;1696407;83;21131;-54
2021/01/14 10:17:40;;;;;;;6.72;5.08;;;;;;;4.68;47.96;95244.32;1722440;83;21557;-54
2021/01/14 10:20:10;;;;;;;7.65;4.62;;;;;;;4.80;47.77;95243.47;1720179;83;21135;-54
2021/01/14 10:22:52;;;;;;;5.62;4.60;;;;;;;4.93;47.33;95235.28;1715409;83;21160;-54
2021/01/14 10:25:21;;;;;;;5.50;4.50;;;;;;;4.99;47.05;95241.73;1721059;81;22328;-55
2021/01/14 10:27:59;;;;;;;;;;;;;;;4.95;47.00;95239.00;1762748;80;21194;-55
2021/01/14 10:30:28;;;;;;;6.78;5.30;;;;;;;4.87;47.07;95241.28;1722221;81;20286;-55
2021/01/14 10:33:05;;;;;;;9.05;5.03;;;;;;;4.79;47.30;95240.55;1722879;83;21227;-54
2021/01/14 10:35:35;;;;;;;;;;;;;;;4.68;47.43;95240.47;1725498;83;21132;-54
2021/01/14 10:38:13;;;;;;;8.18;4.92;;;;;;;4.58;47.64;95244.13;1724881;82;21335;-55
2021/01/14 10:40:47;;;;;;;7.42;5.33;;;;;;;4.45;47.97;95248.45;1723922;82;21068;-55
2021/01/14 10:43:29;;;;;;;7.92;5.53;;;;;;;4.33;48.47;95246.27;1736420;82;21139;-55
2021/01/14 10:45:57;;;;;;;7.03;5.58;;;;;;;4.23;48.76;95245.58;1722934;83;21243;-55
2021/01/14 10:48:28;;;;;;;8.90;6.22;;;;;;;4.15;49.06;95240.14;1722915;82;21171;-54
2021/01/14 10:50:57;;;;;;;9.13;6.20;;;;;;;4.06;49.25;95243.30;1694830;83;21437;-54
2021/01/14 10:53:28;;;;;;;;;;;;;;;3.98;49.50;95242.98;1738479;80;21167;-56
2021/01/14 10:56:09;;;;;;;8.03;6.17;;;;;;;3.93;49.64;95236.90;1731988;82;20270;-55
2021/01/14 10:58:40;;;;;;;8.90;6.53;;;;;;;3.88;49.78;95240.20;1738857;81;21075;-55
2021/01/14 11:01:18;;;;;;;9.88;7.83;;;;;;;3.83;49.85;95235.84;1739254;82;21091;-55
2021/01/14 11:03:45;;;;;;;14.68;7.35;;;;;;;3.75;50.10;95229.94;1741168;82;21382;-55
2021/01/14 11:06:38;;;;;;;9.35;6.83;;;;;;;3.68;50.26;95228.23;1743766;82;24733;-55
2021/01/14 11:09:07;;;;;;;12.90;7.12;;;;;;;3.65;50.40;95230.16;1743592;81;21089;-55
2021/01/14 11:11:35;;;;;;;9.78;7.12;;;;;;;3.61;50.69;95227.44;1743589;82;21155;-54
2021/01/14 11:14:04;;;;;;;13.32;8.10;;;;;;;3.51;50.96;95229.78;1740770;82;21508;-55
2021/01/14 11:16:33;;;;;;;14.50;8.65;;;;;;;3.45;51.32;95225.88;1741868;80;21372;-54
2021/01/14 11:19:03;;;;;;;12.90;8.03;;;;;;;3.39;51.60;95224.98;1743116;81;21080;-55
2021/01/14 11:21:34;;;;;;;11.90;7.80;;;;;;;3.38;51.76;95234.05;1743138;82;21076;-54
2021/01/14 11:24:03;;;;;;;10.88;7.80;;;;;;;3.30;51.94;95231.49;1743566;82;21092;-55
2021/01/14 11:26:31;;;;;;;15.03;8.90;;;;;;;3.28;52.13;95231.24;1743901;82;21065;-55
2021/01/14 11:28:58;;;;;;;11.88;7.83;;;;;;;3.22;52.29;95224.75;1743670;81;22604;-55
2021/01/14 11:31:27;;;;;;;8.98;7.12;;;;;;;3.19;52.76;95229.25;1739821;81;21127;-55
2021/01/14 11:33:55;;;;;;;10.80;7.67;;;;;;;3.10;52.96;95223.78;1739409;82;21512;-55
2021/01/14 11:36:23;;;;;;;12.28;7.70;;;;;;;3.10;52.99;95226.34;1714503;82;21507;-55
2021/01/14 11:38:51;;;;;;;10.60;7.65;;;;;;;3.15;53.02;95219.66;1740168;80;21612;-54
2021/01/14 11:41:21;;;;;;;11.48;7.60;;;;;;;3.19;53.03;95221.13;1742743;82;21251;-55
2021/01/14 11:43:49;;;;;;;11.15;7.22;;;;;;;3.21;53.08;95224.41;1739707;82;21162;-55
2021/01/14 11:46:24;;;;;;;10.23;7.90;;;;;;;3.25;53.08;95223.27;1738926;82;21115;-55
2021/01/14 11:48:51;;;;;;;11.85;6.78;;;;;;;3.28;53.05;95224.36;1739256;81;21536;-54
2021/01/14 11:51:18;;;;;;;10.03;6.92;;;;;;;3.34;52.62;95224.45;1742716;81;21560;-53
2021/01/14 11:53:46;;;;;;;14.07;7.10;;;;;;;3.37;52.67;95226.83;1743690;82;21560;-54
2021/01/14 11:56:15;;;;;;;13.70;7.90;;;;;;;3.37;52.94;95225.55;1747708;81;21167;-54